Time;durP1;ratioP1;P1;durP2;ratioP2;P2;SDS_P1;SDS_P2;PMS_P1;PMS_P2;Temp;Humidity;BMP_temperature;BMP_pressure;BME280_temperature;BME280_humidity;BME280_pressure;Samples;Min_cycle;Max_cycle;Signal;HPM_P1;HPM_P2
2023/07/06 06:09:25;;;;;;;4.60;2.15;;;;;;;;;;6149282;22;20032;-93
2023/07/06 06:11:52;;;;;;;4.70;2.25;;;;;;;;;;6158209;23;20014;-90
2023/07/06 09:14:13;;;;;;;3.70;2.28;;;;;;;;;;6146906;23;20021;-88
2023/07/06 09:16:57;;;;;;;4.53;2.10;;;;;;;;;;6130988;23;20018;-88
2023/07/06 09:19:24;;;;;;;4.22;2.60;;;;;;;;;;6156711;23;20029;-94
2023/07/06 11:33:00;;;;;;;2.97;2.67;;;;;;;;;;6143258;22;20163;31
2023/07/06 11:35:48;;;;;;;3.45;2.38;;;;;;;;;;6127653;23;20022;-87
2023/07/06 11:38:38;;;;;;;2.97;2.40;;;;;;;;;;6130464;23;20021;-90
2023/07/06 11:41:24;;;;;;;2.80;2.05;;;;;;;;;;6107807;23;20006;-94
2023/07/06 11:43:52;;;;;;;2.50;2.10;;;;;;;;;;6097375;23;20078;-93
2023/07/06 16:38:09;;;;;;;4.30;2.30;;;;;;;;;;6168137;23;20044;-93
2023/07/06 16:40:34;;;;;;;4.03;2.25;;;;;;;;;;6158112;23;20020;-92
2023/07/06 16:43:00;;;;;;;4.30;2.63;;;;;;;;;;6157397;23;20005;-93
2023/07/06 16:45:25;;;;;;;4.15;2.38;;;;;;;;;;6157005;23;20028;-94
2023/07/06 16:47:50;;;;;;;4.00;2.63;;;;;;;;;;6157071;23;20002;-92
2023/07/06 16:50:16;;;;;;;3.63;2.25;;;;;;;;;;6156797;23;20447;-89
2023/07/06 16:52:41;;;;;;;2.67;2.10;;;;;;;;;;6157246;23;20002;-91
2023/07/06 16:55:07;;;;;;;3.22;2.17;;;;;;;;;;6156111;23;20421;-90
2023/07/06 16:57:32;;;;;;;2.50;2.20;;;;;;;;;;6156877;23;19997;-91
2023/07/06 16:59:58;;;;;;;4.57;2.20;;;;;;;;;;6156869;23;20381;-92
2023/07/06 17:02:23;;;;;;;3.67;2.20;;;;;;;;;;6156915;23;20006;-90
2023/07/06 17:04:48;;;;;;;3.00;2.20;;;;;;;;;;6156569;23;20491;-88
2023/07/06 17:07:14;;;;;;;3.08;2.30;;;;;;;;;;6157016;23;20418;-89
2023/07/06 17:09:39;;;;;;;4.38;2.53;;;;;;;;;;6159934;23;20398;-89
2023/07/06 17:12:09;;;;;;;5.05;2.47;;;;;;;;;;6161832;23;20025;-90
2023/07/06 17:14:34;;;;;;;4.03;2.40;;;;;;;;;;6156830;23;20005;-89
2023/07/06 17:17:00;;;;;;;3.38;2.03;;;;;;;;;;6156512;23;20227;-87
2023/07/06 17:19:26;;;;;;;3.85;2.22;;;;;;;;;;6156254;23;20048;-89
2023/07/06 17:21:51;;;;;;;4.40;2.35;;;;;;;;;;6156638;23;20013;-90
2023/07/06 17:24:16;;;;;;;3.58;2.63;;;;;;;;;;6156092;23;20060;-89
2023/07/06 17:26:43;;;;;;;2.70;2.30;;;;;;;;;;6129964;23;20010;-87
2023/07/06 17:29:09;;;;;;;3.97;2.22;;;;;;;;;;6156407;23;20436;-89
2023/07/06 17:31:34;;;;;;;2.20;2.00;;;;;;;;;;6156332;23;20002;-88
2023/07/06 17:33:59;;;;;;;2.38;2.08;;;;;;;;;;6155796;23;20440;-88
2023/07/06 17:36:25;;;;;;;3.58;2.50;;;;;;;;;;6156103;23;20402;-90
2023/07/06 17:38:54;;;;;;;3.28;2.13;;;;;;;;;;6156232;23;20010;-90
2023/07/06 17:41:19;;;;;;;4.33;1.90;;;;;;;;;;6156311;23;20076;-88
2023/07/06 17:43:45;;;;;;;2.95;2.20;;;;;;;;;;6156240;23;20370;-85
2023/07/06 17:46:10;;;;;;;5.10;2.40;;;;;;;;;;6157079;23;20093;-90
2023/07/06 17:48:36;;;;;;;5.18;2.40;;;;;;;;;;6156490;23;20006;-91
2023/07/06 17:51:04;;;;;;;6.40;2.50;;;;;;;;;;6157335;23;20413;-92
2023/07/06 17:53:30;;;;;;;2.83;2.00;;;;;;;;;;6157489;23;20417;-92
2023/07/06 17:55:57;;;;;;;2.67;2.05;;;;;;;;;;6158603;23;20020;-91
2023/07/06 17:58:23;;;;;;;3.45;2.58;;;;;;;;;;6156601;23;20073;-90
2023/07/06 18:00:51;;;;;;;3.45;3.15;;;;;;;;;;6156285;23;20036;-88
2023/07/06 18:03:16;;;;;;;7.65;3.55;;;;;;;;;;6155874;23;20005;-90
2023/07/06 18:05:43;;;;;;;4.70;3.47;;;;;;;;;;6155975;23;20010;-88
2023/07/06 18:08:10;;;;;;;2.90;2.60;;;;;;;;;;6157738;23;20321;-89
2023/07/06 18:10:35;;;;;;;3.05;2.28;;;;;;;;;;6158190;23;20378;-89
2023/07/06 18:13:01;;;;;;;4.82;3.55;;;;;;;;;;6157779;23;20005;-90
2023/07/06 18:15:26;;;;;;;3.25;2.88;;;;;;;;;;6157916;23;20005;-89
2023/07/06 18:17:52;;;;;;;4.00;2.53;;;;;;;;;;6158026;23;20413;-92
2023/07/06 18:20:17;;;;;;;3.75;2.60;;;;;;;;;;6158018;23;20005;-93
2023/07/06 18:22:44;;;;;;;2.40;2.20;;;;;;;;;;6158292;23;20037;-91
2023/07/06 18:25:10;;;;;;;5.00;2.30;;;;;;;;;;6157965;23;20006;-91
2023/07/06 18:27:37;;;;;;;4.65;2.58;;;;;;;;;;6158829;23;20511;-93
2023/07/06 18:30:03;;;;;;;3.67;2.70;;;;;;;;;;6133089;23;20005;-94
2023/07/06 18:32:30;;;;;;;5.05;2.67;;;;;;;;;;6158619;23;20060;-95
2023/07/06 18:34:55;;;;;;;4.18;2.45;;;;;;;;;;6158102;23;20409;-91
2023/07/06 18:37:21;;;;;;;4.10;2.22;;;;;;;;;;6158380;23;20089;-92
2023/07/06 18:39:48;;;;;;;4.22;2.70;;;;;;;;;;6159291;23;20029;-89
2023/07/06 18:42:14;;;;;;;6.85;4.72;;;;;;;;;;6157284;23;20009;-89
2023/07/06 18:44:41;;;;;;;6.05;4.00;;;;;;;;;;6159644;23;20080;-92
2023/07/06 18:47:06;;;;;;;4.35;3.45;;;;;;;;;;6158910;23;20381;-92
2023/07/06 18:49:32;;;;;;;3.85;3.08;;;;;;;;;;6158748;23;20002;-92
2023/07/06 18:51:58;;;;;;;4.40;2.78;;;;;;;;;;6157816;23;20029;-92
2023/07/06 18:54:23;;;;;;;5.95;2.72;;;;;;;;;;6158097;23;20302;-91
2023/07/06 18:56:49;;;;;;;6.65;2.67;;;;;;;;;;6131760;23;20095;-90
2023/07/06 18:59:15;;;;;;;2.75;2.20;;;;;;;;;;6158086;23;20343;-91
2023/07/06 19:01:40;;;;;;;4.20;2.20;;;;;;;;;;6158178;23;20036;-92
2023/07/06 19:04:06;;;;;;;4.32;2.85;;;;;;;;;;6157788;23;20037;-92
2023/07/06 19:06:34;;;;;;;4.47;2.40;;;;;;;;;;6158806;23;20029;-93
2023/07/06 19:09:00;;;;;;;5.07;2.20;;;;;;;;;;6158427;23;20021;-93
2023/07/06 19:11:25;;;;;;;4.57;2.28;;;;;;;;;;6158057;23;20444;-94
2023/07/06 19:13:51;;;;;;;3.15;2.08;;;;;;;;;;6158474;23;20087;-91
2023/07/06 19:16:17;;;;;;;3.88;2.00;;;;;;;;;;6158949;23;20001;-93
2023/07/06 19:18:42;;;;;;;3.63;1.80;;;;;;;;;;6157747;23;20063;-94
2023/07/06 19:21:12;;;;;;;3.20;2.20;;;;;;;;;;6158409;23;20084;-94
2023/07/06 19:23:39;;;;;;;3.75;2.10;;;;;;;;;;6158090;23;20016;-93
2023/07/06 19:26:05;;;;;;;3.05;1.90;;;;;;;;;;6157988;23;20084;-93
2023/07/06 19:28:31;;;;;;;3.35;1.98;;;;;;;;;;6157859;23;20009;-88
2023/07/06 19:30:58;;;;;;;2.40;1.75;;;;;;;;;;6157848;23;20002;-94
2023/07/06 19:33:23;;;;;;;3.15;2.15;;;;;;;;;;6157912;23;20006;-91
2023/07/06 19:35:48;;;;;;;4.32;2.10;;;;;;;;;;6158483;23;20060;-93
2023/07/06 19:38:14;;;;;;;3.28;1.90;;;;;;;;;;6157863;23;20026;-92
2023/07/06 19:40:39;;;;;;;2.70;2.00;;;;;;;;;;6158123;23;20001;-94
2023/07/06 19:43:05;;;;;;;3.05;1.95;;;;;;;;;;6137093;23;20009;-91
2023/07/06 19:45:33;;;;;;;4.47;2.08;;;;;;;;;;6159662;23;20005;-90
2023/07/06 19:48:00;;;;;;;3.17;2.10;;;;;;;;;;6158435;23;20005;-90
2023/07/06 19:50:25;;;;;;;3.55;2.03;;;;;;;;;;6159247;23;20006;-91
2023/07/06 19:52:51;;;;;;;3.65;2.22;;;;;;;;;;6159274;23;20101;-93
2023/07/06 19:55:17;;;;;;;3.20;2.10;;;;;;;;;;6158519;23;20013;-89
2023/07/06 19:57:42;;;;;;;3.65;2.05;;;;;;;;;;6158537;23;20048;-92
2023/07/06 20:00:09;;;;;;;2.15;1.80;;;;;;;;;;6158304;23;20305;-95
2023/07/06 20:02:34;;;;;;;3.95;2.22;;;;;;;;;;6157494;23;20068;-93
2023/07/06 20:04:59;;;;;;;3.60;1.92;;;;;;;;;;6157319;23;20014;-94
2023/07/06 20:07:29;;;;;;;2.85;1.90;;;;;;;;;;6157872;23;20499;-88
2023/07/06 20:09:55;;;;;;;4.95;1.92;;;;;;;;;;6131847;23;20100;-93
2023/07/06 20:12:20;;;;;;;3.67;1.70;;;;;;;;;;6157791;23;20010;-95
2023/07/06 20:14:46;;;;;;;3.25;2.00;;;;;;;;;;6131229;23;20075;-89
2023/07/06 20:17:14;;;;;;;1.92;1.65;;;;;;;;;;6157203;23;20002;-89
2023/07/06 20:19:40;;;;;;;2.20;2.00;;;;;;;;;;6157376;23;20009;-95
2023/07/06 20:22:05;;;;;;;2.72;1.88;;;;;;;;;;6157509;23;20023;-91
2023/07/06 20:24:31;;;;;;;3.40;1.85;;;;;;;;;;6157331;23;20421;-94
2023/07/06 20:26:56;;;;;;;2.50;1.88;;;;;;;;;;6157882;23;20031;-95
2023/07/06 20:29:22;;;;;;;5.57;1.90;;;;;;;;;;6157270;23;19997;-93
2023/07/06 20:31:47;;;;;;;3.10;1.58;;;;;;;;;;6157467;23;20085;-90
2023/07/06 20:34:13;;;;;;;2.40;1.80;;;;;;;;;;6157427;23;20413;-92
2023/07/06 20:36:38;;;;;;;2.72;2.47;;;;;;;;;;6159538;23;20009;-92
2023/07/06 20:39:04;;;;;;;2.65;1.90;;;;;;;;;;6130884;23;20045;-91
2023/07/06 20:41:29;;;;;;;2.50;1.75;;;;;;;;;;6156901;23;20005;-89
2023/07/06 20:43:55;;;;;;;2.33;1.77;;;;;;;;;;6157287;23;20033;-93
2023/07/06 20:46:20;;;;;;;3.13;1.70;;;;;;;;;;6156973;23;20036;-92
2023/07/06 20:48:46;;;;;;;4.30;1.50;;;;;;;;;;6157764;23;20447;-95
2023/07/06 20:51:12;;;;;;;2.65;1.80;;;;;;;;;;6156866;23;20409;-94
2023/07/06 20:53:37;;;;;;;1.98;1.50;;;;;;;;;;6157290;23;20065;-93
2023/07/06 20:56:03;;;;;;;2.85;1.73;;;;;;;;;;6156966;23;20091;-86
2023/07/06 20:58:28;;;;;;;2.63;1.85;;;;;;;;;;6156672;23;19997;-92
2023/07/06 21:00:56;;;;;;;1.85;1.63;;;;;;;;;;6157034;23;20006;-94
2023/07/06 21:03:21;;;;;;;3.28;1.85;;;;;;;;;;6157018;23;20048;-90
2023/07/06 21:05:50;;;;;;;2.67;1.70;;;;;;;;;;6131071;23;20010;-90
2023/07/06 21:08:16;;;;;;;1.83;1.42;;;;;;;;;;6157103;23;20005;-92
2023/07/06 21:10:42;;;;;;;3.17;1.70;;;;;;;;;;6157030;23;20128;-91
2023/07/06 21:13:08;;;;;;;1.60;1.50;;;;;;;;;;6157258;23;20008;-90
2023/07/06 21:15:33;;;;;;;2.20;1.63;;;;;;;;;;6156642;23;20009;-91
2023/07/06 21:17:59;;;;;;;3.78;1.80;;;;;;;;;;6156727;23;20008;-88
2023/07/06 21:20:24;;;;;;;2.83;1.77;;;;;;;;;;6156909;23;20002;-91
2023/07/06 21:22:50;;;;;;;1.67;1.58;;;;;;;;;;6156684;23;20006;-91
2023/07/06 21:25:16;;;;;;;3.17;2.00;;;;;;;;;;6156749;23;20005;-92
2023/07/06 21:27:41;;;;;;;4.18;1.88;;;;;;;;;;6156569;23;20006;-90
2023/07/06 21:30:08;;;;;;;2.65;1.90;;;;;;;;;;6156834;23;20001;-91
2023/07/06 21:32:33;;;;;;;2.10;1.77;;;;;;;;;;6156965;23;20025;-92
2023/07/06 21:35:00;;;;;;;2.67;1.75;;;;;;;;;;6156487;23;20005;-91
2023/07/06 21:37:26;;;;;;;2.65;1.90;;;;;;;;;;6156501;23;20021;-92
2023/07/06 21:39:51;;;;;;;2.53;1.77;;;;;;;;;;6156723;23;20001;-89
2023/07/06 21:42:17;;;;;;;6.07;2.72;;;;;;;;;;6157859;23;20008;-90
2023/07/06 21:44:43;;;;;;;3.88;2.08;;;;;;;;;;6158446;23;20083;-91
2023/07/06 21:47:08;;;;;;;2.60;1.92;;;;;;;;;;6132598;23;20009;-93
2023/07/06 21:49:34;;;;;;;3.03;2.60;;;;;;;;;;6158517;23;20001;-92
2023/07/06 21:51:59;;;;;;;4.20;1.88;;;;;;;;;;6132294;23;20040;-91
2023/07/06 21:54:28;;;;;;;2.40;2.20;;;;;;;;;;6158236;23;20009;-90
2023/07/06 21:56:53;;;;;;;4.53;2.13;;;;;;;;;;6132470;23;20037;-91
2023/07/06 21:59:18;;;;;;;2.88;2.40;;;;;;;;;;6158443;23;20033;-92
2023/07/06 22:01:44;;;;;;;3.08;2.20;;;;;;;;;;6158228;23;20006;-93
2023/07/06 22:04:09;;;;;;;2.60;1.92;;;;;;;;;;6132276;23;20017;-93
2023/07/06 22:06:35;;;;;;;2.20;2.00;;;;;;;;;;6158408;23;20080;-92
2023/07/06 22:09:04;;;;;;;3.42;2.22;;;;;;;;;;6158496;23;20029;-91
2023/07/06 22:11:31;;;;;;;3.42;2.20;;;;;;;;;;6132696;23;20096;-93
2023/07/06 22:13:56;;;;;;;2.53;1.90;;;;;;;;;;6158330;23;20012;-88
2023/07/06 22:16:22;;;;;;;2.58;1.80;;;;;;;;;;6158757;23;20005;-95
